Moonbeam, Canada
Current Conditions -  °F | °C
As of 5:15 PM on Friday 24 Oct 2014 (Local Time) from CYYU Reporting Station
Overcast Overcast  
Wind Chill: 44°   Ceiling: 1800
Heat Index: 48°   Visibility: 15mi
Dew Point: 45°   Wind: 9mph
Humidity: 87%   Direction: 240°WSW
Pressure: 29.78"   Gusts: 17mph
Location:  49.34°N, 82.15°W
Report Text: CYYU 242115Z 24008G15KT 15SM SCT008 OVC018 09/07 A2978 RMK SF3SC5 SLP095
Loading
Personal Weather Stations






























Interactive Weather Map
Tropical Storm Tracking
New forecast layout! Learn more

10-Day Weather Forecast

Advertisements
Track Severe Weather on mobile